Portada
METAR-TAF:

METAR-TAF

Aeroports :

Wallis, França

latitud: 13-14S, longitud: 176-10W, altitud: 23 m

Observació

L'informe es va fer fa 25 minuts, a les 14:30 UTC
Vent 6 kt del Sud-Est, variant entre Est i Sud/Sud-Est
Temperatura 27°C
Humitat 79%
Pressió 1010 hPa
Visibilitat 10 km o més

METAR: NLWW 081430Z AUTO 13006KT 100V160 9999 SCT021/// SCT026/// BKN033/// 27/23 Q1010 TEMPO 4000 SHRA SCT020TCU BKN025

Hora: 02:55 (14:55 UTC)

Pronòstic

L'informe es va fer fa 3 hores i 55 minuts, a les 11:00 UTC
Pronòstic vàlid del 08 a les 12 UTC al 09 a les 12 UTC
Vent 8 kt del Est/Sud-Est
Visibilitat 10 km o més
Escasses núvols a una alçada de 2000 ft
Núvols disperses a una alçada de 5000 ft
Probabilitat 40% :
Temporalment
l' 08 a les 15 UTC al 09 a les 06 UTC
Visibilitat: 4000 m
Núvols disperses a una alçada de 2000 ft, Cumulus congestus.
Cel ennuvolat a una alçada de 2500 ft
xàfecs de pluja

TAF: NLWW 081100Z 0812/0912 12008KT 9999 FEW020 SCT050 PROB40 TEMPO 0815/0906 4000 SHRA SCT020TCU BKN025

Observacions i pronòstics meteorològics de més de 4000 aeroports (METAR i TAF).

Les estacions disponibles són els punts grocs i vermells al mapa.

Posi el ratolí al punt desitjat per veure el nom de l'estació.

Feu clic per veure les observacions i els pronòstics meteorològics.

Per canviar el mapa: feu clic els botons verds amb una creu de color negre per apropar; al botó verd amb un guió per allunyar la imatge; o en les fletxes verdes per a mapes adjacents.


METAR-TAF: